sensor_id;sensor_type;location;lat;lon;timestamp;temperature;humidity
51253;DHT22;38936;47.808;19.936;2022-07-05T00:00:59;25.40;45.20
51253;DHT22;38936;47.808;19.936;2022-07-05T00:03:26;25.40;45.60
51253;DHT22;38936;47.808;19.936;2022-07-05T00:05:52;25.30;46.30
51253;DHT22;38936;47.808;19.936;2022-07-05T00:08:18;25.30;46.40
51253;DHT22;38936;47.808;19.936;2022-07-05T00:10:43;25.20;46.80
51253;DHT22;38936;47.808;19.936;2022-07-05T00:13:09;25.10;47.00
51253;DHT22;38936;47.808;19.936;2022-07-05T00:15:35;25.00;47.70
51253;DHT22;38936;47.808;19.936;2022-07-05T00:18:01;24.90;47.90
51253;DHT22;38936;47.808;19.936;2022-07-05T00:20:26;24.90;48.20
51253;DHT22;38936;47.808;19.936;2022-07-05T00:22:52;24.80;48.30
51253;DHT22;38936;47.808;19.936;2022-07-05T00:25:18;24.80;48.80
51253;DHT22;38936;47.808;19.936;2022-07-05T00:27:43;24.70;48.60
51253;DHT22;38936;47.808;19.936;2022-07-05T00:30:10;24.60;47.60
51253;DHT22;38936;47.808;19.936;2022-07-05T00:32:36;24.50;47.30
51253;DHT22;38936;47.808;19.936;2022-07-05T00:35:04;24.50;47.30
51253;DHT22;38936;47.808;19.936;2022-07-05T00:37:29;24.40;47.50
51253;DHT22;38936;47.808;19.936;2022-07-05T00:39:55;24.40;47.60
51253;DHT22;38936;47.808;19.936;2022-07-05T00:42:21;24.30;48.00
51253;DHT22;38936;47.808;19.936;2022-07-05T00:44:47;24.20;48.20
51253;DHT22;38936;47.808;19.936;2022-07-05T00:47:12;24.10;48.50
51253;DHT22;38936;47.808;19.936;2022-07-05T00:49:39;24.10;49.10
51253;DHT22;38936;47.808;19.936;2022-07-05T00:52:06;24.00;49.30
51253;DHT22;38936;47.808;19.936;2022-07-05T00:54:34;23.90;49.60
51253;DHT22;38936;47.808;19.936;2022-07-05T00:57:00;23.90;49.40
51253;DHT22;38936;47.808;19.936;2022-07-05T00:59:27;23.80;50.20
51253;DHT22;38936;47.808;19.936;2022-07-05T01:01:54;23.70;50.60
51253;DHT22;38936;47.808;19.936;2022-07-05T01:04:19;23.70;50.60
51253;DHT22;38936;47.808;19.936;2022-07-05T01:06:48;23.60;50.90
51253;DHT22;38936;47.808;19.936;2022-07-05T01:09:15;23.60;50.90
51253;DHT22;38936;47.808;19.936;2022-07-05T01:11:49;23.50;50.70
51253;DHT22;38936;47.808;19.936;2022-07-05T01:14:23;23.50;50.90
51253;DHT22;38936;47.808;19.936;2022-07-05T01:16:50;23.50;51.30
51253;DHT22;38936;47.808;19.936;2022-07-05T01:19:16;23.50;51.40
51253;DHT22;38936;47.808;19.936;2022-07-05T01:21:44;23.40;51.40
51253;DHT22;38936;47.808;19.936;2022-07-05T01:24:12;23.40;52.00
51253;DHT22;38936;47.808;19.936;2022-07-05T01:26:39;23.30;52.40
51253;DHT22;38936;47.808;19.936;2022-07-05T01:29:05;23.30;52.80
51253;DHT22;38936;47.808;19.936;2022-07-05T01:31:31;23.20;53.00
51253;DHT22;38936;47.808;19.936;2022-07-05T01:33:58;23.20;53.50
51253;DHT22;38936;47.808;19.936;2022-07-05T01:36:24;23.10;54.20
51253;DHT22;38936;47.808;19.936;2022-07-05T01:38:50;23.10;54.10
51253;DHT22;38936;47.808;19.936;2022-07-05T01:41:16;23.00;54.20
51253;DHT22;38936;47.808;19.936;2022-07-05T01:43:41;22.90;53.80
51253;DHT22;38936;47.808;19.936;2022-07-05T01:46:08;22.80;53.70
51253;DHT22;38936;47.808;19.936;2022-07-05T01:48:37;22.90;53.90
51253;DHT22;38936;47.808;19.936;2022-07-05T01:51:16;22.80;54.00
51253;DHT22;38936;47.808;19.936;2022-07-05T01:53:44;22.80;54.00
51253;DHT22;38936;47.808;19.936;2022-07-05T01:56:12;22.70;54.10
51253;DHT22;38936;47.808;19.936;2022-07-05T01:58:38;22.70;55.30
51253;DHT22;38936;47.808;19.936;2022-07-05T02:01:04;22.70;54.70
51253;DHT22;38936;47.808;19.936;2022-07-05T02:03:30;22.70;54.90
51253;DHT22;38936;47.808;19.936;2022-07-05T02:05:56;22.60;55.00
51253;DHT22;38936;47.808;19.936;2022-07-05T02:08:28;22.60;55.10
51253;DHT22;38936;47.808;19.936;2022-07-05T02:10:54;22.60;55.50
51253;DHT22;38936;47.808;19.936;2022-07-05T02:13:20;22.50;55.80
51253;DHT22;38936;47.808;19.936;2022-07-05T02:15:47;22.50;57.00
51253;DHT22;38936;47.808;19.936;2022-07-05T02:18:12;22.40;57.10
51253;DHT22;38936;47.808;19.936;2022-07-05T02:20:39;22.40;57.10
51253;DHT22;38936;47.808;19.936;2022-07-05T02:23:05;22.30;57.20
51253;DHT22;38936;47.808;19.936;2022-07-05T02:25:31;22.30;57.20
51253;DHT22;38936;47.808;19.936;2022-07-05T02:27:57;22.30;57.50
51253;DHT22;38936;47.808;19.936;2022-07-05T02:30:23;22.20;57.70
51253;DHT22;38936;47.808;19.936;2022-07-05T02:32:48;22.10;58.00
51253;DHT22;38936;47.808;19.936;2022-07-05T02:35:14;22.10;58.10
51253;DHT22;38936;47.808;19.936;2022-07-05T02:37:40;22.00;58.60
51253;DHT22;38936;47.808;19.936;2022-07-05T02:40:11;22.00;59.10
51253;DHT22;38936;47.808;19.936;2022-07-05T02:42:37;21.90;59.40
51253;DHT22;38936;47.808;19.936;2022-07-05T02:45:04;21.90;59.50
51253;DHT22;38936;47.808;19.936;2022-07-05T02:47:31;21.80;59.50
51253;DHT22;38936;47.808;19.936;2022-07-05T02:50:07;21.80;59.90
51253;DHT22;38936;47.808;19.936;2022-07-05T02:52:34;21.80;60.30
51253;DHT22;38936;47.808;19.936;2022-07-05T02:55:00;21.90;60.30
51253;DHT22;38936;47.808;19.936;2022-07-05T02:57:26;21.80;60.30
51253;DHT22;38936;47.808;19.936;2022-07-05T02:59:55;21.80;60.30
51253;DHT22;38936;47.808;19.936;2022-07-05T03:02:21;21.80;60.50
51253;DHT22;38936;47.808;19.936;2022-07-05T03:04:47;21.90;60.80
51253;DHT22;38936;47.808;19.936;2022-07-05T03:07:13;21.90;61.50
51253;DHT22;38936;47.808;19.936;2022-07-05T03:09:39;22.00;61.60
51253;DHT22;38936;47.808;19.936;2022-07-05T03:12:05;22.00;61.10
51253;DHT22;38936;47.808;19.936;2022-07-05T03:14:31;22.10;60.30
51253;DHT22;38936;47.808;19.936;2022-07-05T03:16:56;22.20;60.20
51253;DHT22;38936;47.808;19.936;2022-07-05T03:19:22;22.30;60.00
51253;DHT22;38936;47.808;19.936;2022-07-05T03:21:48;22.40;60.00
51253;DHT22;38936;47.808;19.936;2022-07-05T03:24:13;22.50;60.10
51253;DHT22;38936;47.808;19.936;2022-07-05T03:26:39;22.50;59.70
51253;DHT22;38936;47.808;19.936;2022-07-05T03:29:05;22.60;59.50
51253;DHT22;38936;47.808;19.936;2022-07-05T03:31:30;22.60;59.10
51253;DHT22;38936;47.808;19.936;2022-07-05T03:33:56;22.70;59.40
51253;DHT22;38936;47.808;19.936;2022-07-05T03:36:22;22.70;59.50
51253;DHT22;38936;47.808;19.936;2022-07-05T03:38:48;22.80;59.30
51253;DHT22;38936;47.808;19.936;2022-07-05T03:41:13;22.80;59.00
51253;DHT22;38936;47.808;19.936;2022-07-05T03:43:39;22.90;59.10
51253;DHT22;38936;47.808;19.936;2022-07-05T03:46:04;23.00;58.90
51253;DHT22;38936;47.808;19.936;2022-07-05T03:48:30;23.00;58.50
51253;DHT22;38936;47.808;19.936;2022-07-05T03:50:56;23.10;58.60
51253;DHT22;38936;47.808;19.936;2022-07-05T03:53:22;23.20;59.00
51253;DHT22;38936;47.808;19.936;2022-07-05T03:55:48;23.30;59.30
51253;DHT22;38936;47.808;19.936;2022-07-05T03:58:14;23.30;59.50
51253;DHT22;38936;47.808;19.936;2022-07-05T04:00:39;23.40;60.00
51253;DHT22;38936;47.808;19.936;2022-07-05T04:03:05;23.50;60.50
51253;DHT22;38936;47.808;19.936;2022-07-05T04:05:31;23.60;59.30
51253;DHT22;38936;47.808;19.936;2022-07-05T04:07:56;23.70;59.90
51253;DHT22;38936;47.808;19.936;2022-07-05T04:10:23;23.80;58.90
51253;DHT22;38936;47.808;19.936;2022-07-05T04:12:51;23.90;57.70
51253;DHT22;38936;47.808;19.936;2022-07-05T04:15:17;24.00;57.10
51253;DHT22;38936;47.808;19.936;2022-07-05T04:20:12;24.20;56.10
51253;DHT22;38936;47.808;19.936;2022-07-05T04:22:38;24.20;55.60
51253;DHT22;38936;47.808;19.936;2022-07-05T04:25:04;24.30;55.80
51253;DHT22;38936;47.808;19.936;2022-07-05T04:30:12;24.40;56.40
51253;DHT22;38936;47.808;19.936;2022-07-05T04:32:38;24.40;56.70
51253;DHT22;38936;47.808;19.936;2022-07-05T04:35:03;24.50;57.00
51253;DHT22;38936;47.808;19.936;2022-07-05T04:37:29;24.50;57.40
51253;DHT22;38936;47.808;19.936;2022-07-05T04:39:55;24.60;58.00
51253;DHT22;38936;47.808;19.936;2022-07-05T04:42:21;24.60;58.00
51253;DHT22;38936;47.808;19.936;2022-07-05T04:44:46;24.60;57.50
51253;DHT22;38936;47.808;19.936;2022-07-05T04:47:12;24.70;57.20
51253;DHT22;38936;47.808;19.936;2022-07-05T04:49:38;24.80;57.20
51253;DHT22;38936;47.808;19.936;2022-07-05T04:52:03;24.90;57.10
51253;DHT22;38936;47.808;19.936;2022-07-05T04:54:29;25.00;57.00
51253;DHT22;38936;47.808;19.936;2022-07-05T04:56:55;25.00;56.80
51253;DHT22;38936;47.808;19.936;2022-07-05T04:59:21;25.10;56.10
51253;DHT22;38936;47.808;19.936;2022-07-05T05:01:46;25.20;56.40
51253;DHT22;38936;47.808;19.936;2022-07-05T05:04:12;25.30;56.30
51253;DHT22;38936;47.808;19.936;2022-07-05T05:06:37;25.50;56.80
51253;DHT22;38936;47.808;19.936;2022-07-05T05:09:03;25.60;56.30
51253;DHT22;38936;47.808;19.936;2022-07-05T05:11:29;25.70;55.50
51253;DHT22;38936;47.808;19.936;2022-07-05T05:13:55;25.90;54.90
51253;DHT22;38936;47.808;19.936;2022-07-05T05:16:20;26.10;55.10
51253;DHT22;38936;47.808;19.936;2022-07-05T05:18:46;26.20;55.70
51253;DHT22;38936;47.808;19.936;2022-07-05T05:21:12;26.30;56.00
51253;DHT22;38936;47.808;19.936;2022-07-05T05:23:37;26.30;56.20
51253;DHT22;38936;47.808;19.936;2022-07-05T05:26:03;26.40;55.50
51253;DHT22;38936;47.808;19.936;2022-07-05T05:28:29;26.50;55.30
51253;DHT22;38936;47.808;19.936;2022-07-05T05:30:54;26.50;54.60
51253;DHT22;38936;47.808;19.936;2022-07-05T05:33:20;26.50;54.30
51253;DHT22;38936;47.808;19.936;2022-07-05T05:35:45;26.50;53.60
51253;DHT22;38936;47.808;19.936;2022-07-05T05:38:11;26.50;53.70
51253;DHT22;38936;47.808;19.936;2022-07-05T05:40:37;26.60;53.80
51253;DHT22;38936;47.808;19.936;2022-07-05T05:43:10;26.60;53.90
51253;DHT22;38936;47.808;19.936;2022-07-05T05:45:36;26.70;53.80
51253;DHT22;38936;47.808;19.936;2022-07-05T05:48:02;26.70;53.10
51253;DHT22;38936;47.808;19.936;2022-07-05T05:50:33;26.80;52.20
51253;DHT22;38936;47.808;19.936;2022-07-05T05:53:00;27.00;51.60
51253;DHT22;38936;47.808;19.936;2022-07-05T05:55:28;27.20;51.20
51253;DHT22;38936;47.808;19.936;2022-07-05T05:57:54;27.40;51.20
51253;DHT22;38936;47.808;19.936;2022-07-05T06:00:21;27.80;49.70
51253;DHT22;38936;47.808;19.936;2022-07-05T06:02:49;28.20;49.90
51253;DHT22;38936;47.808;19.936;2022-07-05T06:05:15;28.70;50.50
51253;DHT22;38936;47.808;19.936;2022-07-05T06:07:52;28.90;50.50
51253;DHT22;38936;47.808;19.936;2022-07-05T06:12:45;29.10;53.00
51253;DHT22;38936;47.808;19.936;2022-07-05T06:15:10;29.00;53.20
51253;DHT22;38936;47.808;19.936;2022-07-05T06:17:37;29.00;54.30
51253;DHT22;38936;47.808;19.936;2022-07-05T06:20:07;28.90;52.10
51253;DHT22;38936;47.808;19.936;2022-07-05T06:22:34;28.90;52.30
51253;DHT22;38936;47.808;19.936;2022-07-05T06:24:59;29.00;50.50
51253;DHT22;38936;47.808;19.936;2022-07-05T06:27:25;29.00;50.90
51253;DHT22;38936;47.808;19.936;2022-07-05T06:29:51;28.90;51.20
51253;DHT22;38936;47.808;19.936;2022-07-05T06:32:16;28.90;51.90
51253;DHT22;38936;47.808;19.936;2022-07-05T06:34:42;28.70;51.90
51253;DHT22;38936;47.808;19.936;2022-07-05T06:37:08;28.60;50.70
51253;DHT22;38936;47.808;19.936;2022-07-05T06:39:33;28.50;50.80
51253;DHT22;38936;47.808;19.936;2022-07-05T06:41:59;28.40;50.40
51253;DHT22;38936;47.808;19.936;2022-07-05T06:44:25;28.40;50.20
51253;DHT22;38936;47.808;19.936;2022-07-05T06:46:50;28.40;50.10
51253;DHT22;38936;47.808;19.936;2022-07-05T06:49:16;28.40;49.90
51253;DHT22;38936;47.808;19.936;2022-07-05T06:51:42;28.40;49.90
51253;DHT22;38936;47.808;19.936;2022-07-05T06:54:07;28.40;50.40
51253;DHT22;38936;47.808;19.936;2022-07-05T06:56:33;28.40;50.30
51253;DHT22;38936;47.808;19.936;2022-07-05T06:58:59;28.40;50.50
51253;DHT22;38936;47.808;19.936;2022-07-05T07:01:24;28.40;50.40
51253;DHT22;38936;47.808;19.936;2022-07-05T07:03:50;28.50;49.90
51253;DHT22;38936;47.808;19.936;2022-07-05T07:06:15;28.60;50.30
51253;DHT22;38936;47.808;19.936;2022-07-05T07:08:41;28.70;50.10
51253;DHT22;38936;47.808;19.936;2022-07-05T07:11:25;28.90;49.50
51253;DHT22;38936;47.808;19.936;2022-07-05T07:13:52;29.00;49.10
51253;DHT22;38936;47.808;19.936;2022-07-05T07:16:17;29.00;49.20
51253;DHT22;38936;47.808;19.936;2022-07-05T07:18:43;29.10;48.70
51253;DHT22;38936;47.808;19.936;2022-07-05T07:21:09;29.10;47.30
51253;DHT22;38936;47.808;19.936;2022-07-05T07:23:34;29.10;46.90
51253;DHT22;38936;47.808;19.936;2022-07-05T07:26:02;29.10;46.80
51253;DHT22;38936;47.808;19.936;2022-07-05T07:28:28;29.10;46.20
51253;DHT22;38936;47.808;19.936;2022-07-05T07:30:55;29.20;45.20
51253;DHT22;38936;47.808;19.936;2022-07-05T07:33:21;29.30;45.70
51253;DHT22;38936;47.808;19.936;2022-07-05T07:35:46;29.40;46.20
51253;DHT22;38936;47.808;19.936;2022-07-05T07:38:12;29.60;44.50
51253;DHT22;38936;47.808;19.936;2022-07-05T07:40:37;29.80;43.40
51253;DHT22;38936;47.808;19.936;2022-07-05T07:43:03;29.80;42.90
51253;DHT22;38936;47.808;19.936;2022-07-05T07:45:29;30.00;41.70
51253;DHT22;38936;47.808;19.936;2022-07-05T07:47:56;30.20;40.80
51253;DHT22;38936;47.808;19.936;2022-07-05T07:50:22;30.40;40.80
51253;DHT22;38936;47.808;19.936;2022-07-05T07:52:48;30.60;39.90
51253;DHT22;38936;47.808;19.936;2022-07-05T07:55:14;30.80;40.30
51253;DHT22;38936;47.808;19.936;2022-07-05T07:57:41;30.90;39.70
51253;DHT22;38936;47.808;19.936;2022-07-05T08:00:07;31.10;40.00
51253;DHT22;38936;47.808;19.936;2022-07-05T08:02:33;31.30;40.00
51253;DHT22;38936;47.808;19.936;2022-07-05T08:04:58;31.70;38.10
51253;DHT22;38936;47.808;19.936;2022-07-05T08:07:25;32.20;38.90
51253;DHT22;38936;47.808;19.936;2022-07-05T08:09:51;32.50;37.30
51253;DHT22;38936;47.808;19.936;2022-07-05T08:12:18;33.00;35.70
51253;DHT22;38936;47.808;19.936;2022-07-05T08:14:44;33.30;35.90
51253;DHT22;38936;47.808;19.936;2022-07-05T08:17:11;33.50;36.40
51253;DHT22;38936;47.808;19.936;2022-07-05T08:19:37;34.00;34.70
51253;DHT22;38936;47.808;19.936;2022-07-05T08:22:22;34.30;33.50
51253;DHT22;38936;47.808;19.936;2022-07-05T08:24:49;34.80;33.50
51253;DHT22;38936;47.808;19.936;2022-07-05T08:27:15;35.80;31.90
51253;DHT22;38936;47.808;19.936;2022-07-05T08:29:42;36.60;31.20
51253;DHT22;38936;47.808;19.936;2022-07-05T08:32:08;37.40;30.30
51253;DHT22;38936;47.808;19.936;2022-07-05T08:34:34;38.10;30.90
51253;DHT22;38936;47.808;19.936;2022-07-05T08:37:00;38.30;30.00
51253;DHT22;38936;47.808;19.936;2022-07-05T08:39:26;38.40;29.40
51253;DHT22;38936;47.808;19.936;2022-07-05T08:41:52;38.10;29.10
51253;DHT22;38936;47.808;19.936;2022-07-05T08:44:21;37.90;29.50
51253;DHT22;38936;47.808;19.936;2022-07-05T08:46:49;37.90;29.10
51253;DHT22;38936;47.808;19.936;2022-07-05T08:49:21;37.50;28.40
51253;DHT22;38936;47.808;19.936;2022-07-05T08:51:48;37.50;28.40
51253;DHT22;38936;47.808;19.936;2022-07-05T08:54:14;36.90;29.00
51253;DHT22;38936;47.808;19.936;2022-07-05T08:56:41;36.30;29.80
51253;DHT22;38936;47.808;19.936;2022-07-05T08:59:07;35.90;30.00
51253;DHT22;38936;47.808;19.936;2022-07-05T09:01:33;35.60;30.40
51253;DHT22;38936;47.808;19.936;2022-07-05T09:04:05;35.50;30.10
51253;DHT22;38936;47.808;19.936;2022-07-05T09:06:33;35.60;30.20
51253;DHT22;38936;47.808;19.936;2022-07-05T09:09:01;36.00;30.50
51253;DHT22;38936;47.808;19.936;2022-07-05T09:11:38;36.20;30.20
51253;DHT22;38936;47.808;19.936;2022-07-05T09:14:06;36.50;29.80
51253;DHT22;38936;47.808;19.936;2022-07-05T09:16:33;36.90;29.50
51253;DHT22;38936;47.808;19.936;2022-07-05T09:19:07;37.30;29.50
51253;DHT22;38936;47.808;19.936;2022-07-05T09:21:33;38.30;29.20
51253;DHT22;38936;47.808;19.936;2022-07-05T09:24:03;38.80;28.50
51253;DHT22;38936;47.808;19.936;2022-07-05T09:26:44;39.10;28.40
51253;DHT22;38936;47.808;19.936;2022-07-05T09:29:12;38.90;26.90
51253;DHT22;38936;47.808;19.936;2022-07-05T09:31:43;38.50;27.90
51253;DHT22;38936;47.808;19.936;2022-07-05T09:34:17;38.50;28.50
51253;DHT22;38936;47.808;19.936;2022-07-05T09:44:44;36.70;29.40
51253;DHT22;38936;47.808;19.936;2022-07-05T09:47:15;36.50;29.50
51253;DHT22;38936;47.808;19.936;2022-07-05T09:49:43;36.60;29.80
51253;DHT22;38936;47.808;19.936;2022-07-05T09:52:09;36.50;30.00
51253;DHT22;38936;47.808;19.936;2022-07-05T09:54:35;36.20;30.20
51253;DHT22;38936;47.808;19.936;2022-07-05T09:57:01;36.20;30.00
51253;DHT22;38936;47.808;19.936;2022-07-05T09:59:27;36.30;29.90
51253;DHT22;38936;47.808;19.936;2022-07-05T10:01:52;36.70;30.00
51253;DHT22;38936;47.808;19.936;2022-07-05T10:04:18;36.80;30.10
51253;DHT22;38936;47.808;19.936;2022-07-05T10:06:45;37.10;30.00
51253;DHT22;38936;47.808;19.936;2022-07-05T10:09:11;37.50;30.00
51253;DHT22;38936;47.808;19.936;2022-07-05T10:11:41;37.60;29.60
51253;DHT22;38936;47.808;19.936;2022-07-05T10:14:15;37.60;29.70
51253;DHT22;38936;47.808;19.936;2022-07-05T10:16:52;37.40;29.80
51253;DHT22;38936;47.808;19.936;2022-07-05T10:19:21;37.30;29.30
51253;DHT22;38936;47.808;19.936;2022-07-05T10:21:48;37.10;29.70
51253;DHT22;38936;47.808;19.936;2022-07-05T10:24:16;37.10;29.90
51253;DHT22;38936;47.808;19.936;2022-07-05T10:26:44;36.90;30.00
51253;DHT22;38936;47.808;19.936;2022-07-05T10:29:12;36.60;29.80
51253;DHT22;38936;47.808;19.936;2022-07-05T10:31:39;36.40;30.40
51253;DHT22;38936;47.808;19.936;2022-07-05T10:34:04;36.40;30.70
51253;DHT22;38936;47.808;19.936;2022-07-05T10:36:33;36.40;31.40
51253;DHT22;38936;47.808;19.936;2022-07-05T10:39:00;36.50;31.30
51253;DHT22;38936;47.808;19.936;2022-07-05T10:41:27;36.50;31.50
51253;DHT22;38936;47.808;19.936;2022-07-05T10:43:58;36.50;30.30
51253;DHT22;38936;47.808;19.936;2022-07-05T10:46:37;36.40;30.60
51253;DHT22;38936;47.808;19.936;2022-07-05T10:49:11;36.20;31.20
51253;DHT22;38936;47.808;19.936;2022-07-05T10:51:37;35.90;31.50
51253;DHT22;38936;47.808;19.936;2022-07-05T10:54:03;36.00;31.90
51253;DHT22;38936;47.808;19.936;2022-07-05T10:56:28;36.20;31.90
51253;DHT22;38936;47.808;19.936;2022-07-05T10:59:08;36.50;31.30
51253;DHT22;38936;47.808;19.936;2022-07-05T11:01:37;36.80;30.80
51253;DHT22;38936;47.808;19.936;2022-07-05T11:06:43;37.10;30.60
51253;DHT22;38936;47.808;19.936;2022-07-05T11:11:41;37.00;30.00
51253;DHT22;38936;47.808;19.936;2022-07-05T11:16:47;36.60;29.70
51253;DHT22;38936;47.808;19.936;2022-07-05T11:19:17;36.10;30.30
51253;DHT22;38936;47.808;19.936;2022-07-05T11:22:05;35.80;31.90
51253;DHT22;38936;47.808;19.936;2022-07-05T11:24:34;35.60;31.00
51253;DHT22;38936;47.808;19.936;2022-07-05T11:27:03;35.40;31.90
51253;DHT22;38936;47.808;19.936;2022-07-05T11:29:50;35.40;33.70
51253;DHT22;38936;47.808;19.936;2022-07-05T11:32:16;35.40;32.70
51253;DHT22;38936;47.808;19.936;2022-07-05T11:34:44;35.50;32.60
51253;DHT22;38936;47.808;19.936;2022-07-05T11:37:25;35.40;32.60
51253;DHT22;38936;47.808;19.936;2022-07-05T11:42:33;35.30;33.20
51253;DHT22;38936;47.808;19.936;2022-07-05T11:45:00;35.20;33.20
51253;DHT22;38936;47.808;19.936;2022-07-05T11:47:27;35.20;33.50
51253;DHT22;38936;47.808;19.936;2022-07-05T11:49:56;35.20;36.20
51253;DHT22;38936;47.808;19.936;2022-07-05T11:52:29;35.10;35.90
51253;DHT22;38936;47.808;19.936;2022-07-05T11:54:59;34.90;39.70
51253;DHT22;38936;47.808;19.936;2022-07-05T11:57:25;34.70;41.70
51253;DHT22;38936;47.808;19.936;2022-07-05T11:59:51;34.30;40.90
51253;DHT22;38936;47.808;19.936;2022-07-05T12:02:17;33.90;43.60
51253;DHT22;38936;47.808;19.936;2022-07-05T12:04:54;33.50;44.30
51253;DHT22;38936;47.808;19.936;2022-07-05T12:07:27;33.30;45.20
51253;DHT22;38936;47.808;19.936;2022-07-05T12:09:53;33.00;46.40
51253;DHT22;38936;47.808;19.936;2022-07-05T12:12:37;32.80;46.30
51253;DHT22;38936;47.808;19.936;2022-07-05T12:15:17;32.60;46.90
51253;DHT22;38936;47.808;19.936;2022-07-05T12:17:45;32.40;47.10
51253;DHT22;38936;47.808;19.936;2022-07-05T12:20:13;32.30;47.00
51253;DHT22;38936;47.808;19.936;2022-07-05T12:22:44;32.30;47.10
51253;DHT22;38936;47.808;19.936;2022-07-05T12:25:15;32.30;48.50
51253;DHT22;38936;47.808;19.936;2022-07-05T12:27:42;32.30;47.90
51253;DHT22;38936;47.808;19.936;2022-07-05T12:30:10;32.30;48.80
51253;DHT22;38936;47.808;19.936;2022-07-05T12:35:43;32.10;50.10
51253;DHT22;38936;47.808;19.936;2022-07-05T12:40:37;31.90;49.50
51253;DHT22;38936;47.808;19.936;2022-07-05T12:43:17;31.90;49.00
51253;DHT22;38936;47.808;19.936;2022-07-05T12:46:07;32.10;50.60
51253;DHT22;38936;47.808;19.936;2022-07-05T12:48:34;32.00;48.50
51253;DHT22;38936;47.808;19.936;2022-07-05T12:51:01;31.90;49.00
51253;DHT22;38936;47.808;19.936;2022-07-05T12:53:27;31.80;49.40
51253;DHT22;38936;47.808;19.936;2022-07-05T12:56:23;31.70;49.60
51253;DHT22;38936;47.808;19.936;2022-07-05T12:59:09;31.70;49.10
51253;DHT22;38936;47.808;19.936;2022-07-05T13:01:39;31.50;49.40
51253;DHT22;38936;47.808;19.936;2022-07-05T13:04:07;31.40;49.10
51253;DHT22;38936;47.808;19.936;2022-07-05T13:06:57;31.20;49.50
51253;DHT22;38936;47.808;19.936;2022-07-05T13:14:44;31.10;50.40
51253;DHT22;38936;47.808;19.936;2022-07-05T13:17:12;31.10;50.30
51253;DHT22;38936;47.808;19.936;2022-07-05T13:19:40;31.10;50.50
51253;DHT22;38936;47.808;19.936;2022-07-05T13:22:06;31.20;50.80
51253;DHT22;38936;47.808;19.936;2022-07-05T13:24:32;31.20;50.50
51253;DHT22;38936;47.808;19.936;2022-07-05T13:26:58;31.20;50.70
51253;DHT22;38936;47.808;19.936;2022-07-05T13:29:24;31.20;50.60
51253;DHT22;38936;47.808;19.936;2022-07-05T13:31:50;31.10;50.70
51253;DHT22;38936;47.808;19.936;2022-07-05T13:34:15;31.20;50.80
51253;DHT22;38936;47.808;19.936;2022-07-05T13:36:41;31.20;50.80
51253;DHT22;38936;47.808;19.936;2022-07-05T13:39:07;31.20;50.50
51253;DHT22;38936;47.808;19.936;2022-07-05T13:41:32;31.10;50.70
51253;DHT22;38936;47.808;19.936;2022-07-05T13:43:59;31.00;50.10
51253;DHT22;38936;47.808;19.936;2022-07-05T13:46:25;30.80;49.80
51253;DHT22;38936;47.808;19.936;2022-07-05T13:48:50;30.50;50.20
51253;DHT22;38936;47.808;19.936;2022-07-05T13:51:16;30.30;50.50
51253;DHT22;38936;47.808;19.936;2022-07-05T13:53:43;30.20;50.90
51253;DHT22;38936;47.808;19.936;2022-07-05T13:56:08;30.00;51.30
51253;DHT22;38936;47.808;19.936;2022-07-05T13:58:34;29.90;50.60
51253;DHT22;38936;47.808;19.936;2022-07-05T14:01:00;29.80;50.20
51253;DHT22;38936;47.808;19.936;2022-07-05T14:03:27;29.70;50.60
51253;DHT22;38936;47.808;19.936;2022-07-05T14:05:52;29.50;50.00
51253;DHT22;38936;47.808;19.936;2022-07-05T14:08:18;29.30;50.30
51253;DHT22;38936;47.808;19.936;2022-07-05T14:10:54;29.10;50.20
51253;DHT22;38936;47.808;19.936;2022-07-05T14:13:22;28.90;50.30
51253;DHT22;38936;47.808;19.936;2022-07-05T14:15:48;28.90;50.70
51253;DHT22;38936;47.808;19.936;2022-07-05T14:18:14;28.90;50.90
51253;DHT22;38936;47.808;19.936;2022-07-05T14:20:41;28.80;50.80
51253;DHT22;38936;47.808;19.936;2022-07-05T14:23:07;28.80;50.90
51253;DHT22;38936;47.808;19.936;2022-07-05T14:25:34;28.80;50.70
51253;DHT22;38936;47.808;19.936;2022-07-05T14:28:00;28.80;50.90
51253;DHT22;38936;47.808;19.936;2022-07-05T14:30:26;28.80;51.10
51253;DHT22;38936;47.808;19.936;2022-07-05T14:32:54;28.40;50.90
51253;DHT22;38936;47.808;19.936;2022-07-05T14:35:20;28.30;51.60
51253;DHT22;38936;47.808;19.936;2022-07-05T14:37:45;28.10;52.30
51253;DHT22;38936;47.808;19.936;2022-07-05T14:40:11;28.10;53.00
51253;DHT22;38936;47.808;19.936;2022-07-05T14:42:37;28.10;53.50
51253;DHT22;38936;47.808;19.936;2022-07-05T14:45:03;28.10;53.70
51253;DHT22;38936;47.808;19.936;2022-07-05T14:47:29;28.20;53.60
51253;DHT22;38936;47.808;19.936;2022-07-05T14:49:55;28.30;53.70
51253;DHT22;38936;47.808;19.936;2022-07-05T14:52:21;28.30;53.60
51253;DHT22;38936;47.808;19.936;2022-07-05T14:54:47;28.30;53.80
51253;DHT22;38936;47.808;19.936;2022-07-05T14:57:13;28.30;54.10
51253;DHT22;38936;47.808;19.936;2022-07-05T14:59:39;28.40;54.10
51253;DHT22;38936;47.808;19.936;2022-07-05T15:02:05;28.50;53.70
51253;DHT22;38936;47.808;19.936;2022-07-05T15:04:34;28.50;53.60
51253;DHT22;38936;47.808;19.936;2022-07-05T15:06:59;28.60;53.70
51253;DHT22;38936;47.808;19.936;2022-07-05T15:09:25;28.60;54.00
51253;DHT22;38936;47.808;19.936;2022-07-05T15:11:51;28.50;54.20
51253;DHT22;38936;47.808;19.936;2022-07-05T15:14:17;28.40;53.90
51253;DHT22;38936;47.808;19.936;2022-07-05T15:16:42;28.40;53.80
51253;DHT22;38936;47.808;19.936;2022-07-05T15:19:08;28.30;53.90
51253;DHT22;38936;47.808;19.936;2022-07-05T15:21:34;28.30;54.00
51253;DHT22;38936;47.808;19.936;2022-07-05T15:23:59;28.20;54.40
51253;DHT22;38936;47.808;19.936;2022-07-05T15:26:27;28.10;54.90
51253;DHT22;38936;47.808;19.936;2022-07-05T15:29:07;28.00;55.10
51253;DHT22;38936;47.808;19.936;2022-07-05T15:31:34;27.90;55.40
51253;DHT22;38936;47.808;19.936;2022-07-05T15:34:01;27.70;55.80
51253;DHT22;38936;47.808;19.936;2022-07-05T15:36:28;27.60;55.90
51253;DHT22;38936;47.808;19.936;2022-07-05T15:38:58;27.50;56.00
51253;DHT22;38936;47.808;19.936;2022-07-05T15:41:24;27.40;56.30
51253;DHT22;38936;47.808;19.936;2022-07-05T15:43:49;27.40;56.80
51253;DHT22;38936;47.808;19.936;2022-07-05T15:46:15;27.40;57.60
51253;DHT22;38936;47.808;19.936;2022-07-05T15:48:41;27.30;57.10
51253;DHT22;38936;47.808;19.936;2022-07-05T15:51:07;27.20;57.20
51253;DHT22;38936;47.808;19.936;2022-07-05T15:53:33;27.20;57.40